sensor_id;sensor_type;location;lat;lon;timestamp;temperature;humidity
63445;DHT22;49573;47.682;9.170;2022-10-20T00:02:31;14.80;83.30
63445;DHT22;49573;47.682;9.170;2022-10-20T00:05:17;14.80;83.10
63445;DHT22;49573;47.682;9.170;2022-10-20T00:08:03;14.80;83.30
63445;DHT22;49573;47.682;9.170;2022-10-20T00:10:53;14.90;82.90
63445;DHT22;49573;47.682;9.170;2022-10-20T00:13:44;14.80;83.30
63445;DHT22;49573;47.682;9.170;2022-10-20T00:33:13;15.80;80.00
63445;DHT22;49573;47.682;9.170;2022-10-20T00:36:00;15.80;80.00
63445;DHT22;49573;47.682;9.170;2022-10-20T00:38:47;15.20;82.20
63445;DHT22;49573;47.682;9.170;2022-10-20T00:41:33;15.00;82.80
63445;DHT22;49573;47.682;9.170;2022-10-20T00:44:48;15.10;82.80
63445;DHT22;49573;47.682;9.170;2022-10-20T00:47:38;15.00;83.00
63445;DHT22;49573;47.682;9.170;2022-10-20T00:50:30;15.00;82.90
63445;DHT22;49573;47.682;9.170;2022-10-20T00:53:16;15.00;82.90
63445;DHT22;49573;47.682;9.170;2022-10-20T00:56:03;15.00;83.10
63445;DHT22;49573;47.682;9.170;2022-10-20T00:58:49;15.00;83.40
63445;DHT22;49573;47.682;9.170;2022-10-20T01:01:36;15.00;83.50
63445;DHT22;49573;47.682;9.170;2022-10-20T01:04:25;14.90;83.30
63445;DHT22;49573;47.682;9.170;2022-10-20T01:07:12;15.00;83.80
63445;DHT22;49573;47.682;9.170;2022-10-20T01:09:58;15.00;83.80
63445;DHT22;49573;47.682;9.170;2022-10-20T01:12:49;15.00;83.40
63445;DHT22;49573;47.682;9.170;2022-10-20T01:15:42;15.00;83.30
63445;DHT22;49573;47.682;9.170;2022-10-20T01:18:34;15.00;83.70
63445;DHT22;49573;47.682;9.170;2022-10-20T01:24:46;15.00;83.40
63445;DHT22;49573;47.682;9.170;2022-10-20T01:27:37;15.10;83.70
63445;DHT22;49573;47.682;9.170;2022-10-20T01:30:24;15.00;83.60
63445;DHT22;49573;47.682;9.170;2022-10-20T01:33:17;15.10;83.80
63445;DHT22;49573;47.682;9.170;2022-10-20T01:36:10;15.00;83.60
63445;DHT22;49573;47.682;9.170;2022-10-20T01:39:01;15.00;83.50
63445;DHT22;49573;47.682;9.170;2022-10-20T01:41:50;15.00;83.50
63445;DHT22;49573;47.682;9.170;2022-10-20T01:44:40;15.10;83.50
63445;DHT22;49573;47.682;9.170;2022-10-20T01:47:27;15.10;83.70
63445;DHT22;49573;47.682;9.170;2022-10-20T01:50:16;15.10;84.00
63445;DHT22;49573;47.682;9.170;2022-10-20T01:53:04;15.10;83.80
63445;DHT22;49573;47.682;9.170;2022-10-20T01:55:50;15.10;83.90
63445;DHT22;49573;47.682;9.170;2022-10-20T01:58:54;15.10;83.80
63445;DHT22;49573;47.682;9.170;2022-10-20T02:01:59;15.10;83.10
63445;DHT22;49573;47.682;9.170;2022-10-20T02:04:58;15.10;83.80
63445;DHT22;49573;47.682;9.170;2022-10-20T02:07:48;15.10;83.80
63445;DHT22;49573;47.682;9.170;2022-10-20T02:10:42;15.10;83.80
63445;DHT22;49573;47.682;9.170;2022-10-20T02:13:30;15.00;84.00
63445;DHT22;49573;47.682;9.170;2022-10-20T02:16:21;15.10;84.30
63445;DHT22;49573;47.682;9.170;2022-10-20T02:19:10;15.00;84.00
63445;DHT22;49573;47.682;9.170;2022-10-20T02:21:59;15.10;83.80
63445;DHT22;49573;47.682;9.170;2022-10-20T02:24:46;15.00;83.80
63445;DHT22;49573;47.682;9.170;2022-10-20T02:27:34;15.00;83.80
63445;DHT22;49573;47.682;9.170;2022-10-20T02:30:21;15.00;83.80
63445;DHT22;49573;47.682;9.170;2022-10-20T02:33:07;15.00;83.70
63445;DHT22;49573;47.682;9.170;2022-10-20T02:35:57;15.00;84.10
63445;DHT22;49573;47.682;9.170;2022-10-20T02:38:43;15.00;84.00
63445;DHT22;49573;47.682;9.170;2022-10-20T02:41:29;15.00;84.00
63445;DHT22;49573;47.682;9.170;2022-10-20T02:44:16;15.00;84.00
63445;DHT22;49573;47.682;9.170;2022-10-20T02:47:02;15.00;83.90
63445;DHT22;49573;47.682;9.170;2022-10-20T02:49:48;15.00;84.10
63445;DHT22;49573;47.682;9.170;2022-10-20T02:52:36;15.00;83.90
63445;DHT22;49573;47.682;9.170;2022-10-20T02:55:22;15.00;83.70
63445;DHT22;49573;47.682;9.170;2022-10-20T02:58:08;15.00;83.60
63445;DHT22;49573;47.682;9.170;2022-10-20T03:00:55;15.00;84.00
63445;DHT22;49573;47.682;9.170;2022-10-20T03:03:41;15.00;84.20
63445;DHT22;49573;47.682;9.170;2022-10-20T03:06:27;15.00;83.80
63445;DHT22;49573;47.682;9.170;2022-10-20T03:09:14;15.00;84.40
63445;DHT22;49573;47.682;9.170;2022-10-20T03:12:00;15.00;84.00
63445;DHT22;49573;47.682;9.170;2022-10-20T03:14:46;15.00;84.40
63445;DHT22;49573;47.682;9.170;2022-10-20T03:17:33;15.00;84.20
63445;DHT22;49573;47.682;9.170;2022-10-20T03:20:19;15.00;84.10
63445;DHT22;49573;47.682;9.170;2022-10-20T03:23:05;15.00;84.40
63445;DHT22;49573;47.682;9.170;2022-10-20T03:25:52;15.10;83.90
63445;DHT22;49573;47.682;9.170;2022-10-20T03:28:39;15.00;84.30
63445;DHT22;49573;47.682;9.170;2022-10-20T03:31:25;15.00;84.30
63445;DHT22;49573;47.682;9.170;2022-10-20T03:34:11;15.00;84.30
63445;DHT22;49573;47.682;9.170;2022-10-20T03:36:58;15.10;84.40
63445;DHT22;49573;47.682;9.170;2022-10-20T03:39:44;15.10;84.50
63445;DHT22;49573;47.682;9.170;2022-10-20T03:42:31;15.00;84.40
63445;DHT22;49573;47.682;9.170;2022-10-20T03:45:17;15.10;84.20
63445;DHT22;49573;47.682;9.170;2022-10-20T03:48:04;15.00;84.40
63445;DHT22;49573;47.682;9.170;2022-10-20T03:50:50;15.00;84.60
63445;DHT22;49573;47.682;9.170;2022-10-20T03:53:36;15.00;84.70
63445;DHT22;49573;47.682;9.170;2022-10-20T03:56:22;15.00;84.50
63445;DHT22;49573;47.682;9.170;2022-10-20T03:59:10;15.00;84.70
63445;DHT22;49573;47.682;9.170;2022-10-20T04:01:56;15.00;84.30
63445;DHT22;49573;47.682;9.170;2022-10-20T04:04:42;15.00;84.70
63445;DHT22;49573;47.682;9.170;2022-10-20T04:07:28;15.00;84.60
63445;DHT22;49573;47.682;9.170;2022-10-20T04:10:15;15.00;84.60
63445;DHT22;49573;47.682;9.170;2022-10-20T04:13:01;14.90;84.80
63445;DHT22;49573;47.682;9.170;2022-10-20T04:15:49;14.90;84.60
63445;DHT22;49573;47.682;9.170;2022-10-20T04:18:35;15.00;84.60
63445;DHT22;49573;47.682;9.170;2022-10-20T04:21:21;15.00;84.60
63445;DHT22;49573;47.682;9.170;2022-10-20T04:24:07;14.90;84.80
63445;DHT22;49573;47.682;9.170;2022-10-20T04:26:54;14.90;84.70
63445;DHT22;49573;47.682;9.170;2022-10-20T04:29:40;14.90;84.90
63445;DHT22;49573;47.682;9.170;2022-10-20T04:32:27;14.90;84.80
63445;DHT22;49573;47.682;9.170;2022-10-20T04:35:13;15.00;84.70
63445;DHT22;49573;47.682;9.170;2022-10-20T04:37:59;15.00;84.80
63445;DHT22;49573;47.682;9.170;2022-10-20T04:40:53;15.00;84.40
63445;DHT22;49573;47.682;9.170;2022-10-20T04:43:39;15.10;84.30
63445;DHT22;49573;47.682;9.170;2022-10-20T04:46:25;15.10;84.80
63445;DHT22;49573;47.682;9.170;2022-10-20T04:49:13;15.00;84.60
63445;DHT22;49573;47.682;9.170;2022-10-20T04:51:59;15.00;84.80
63445;DHT22;49573;47.682;9.170;2022-10-20T04:54:45;15.10;84.40
63445;DHT22;49573;47.682;9.170;2022-10-20T04:57:32;15.10;84.40
63445;DHT22;49573;47.682;9.170;2022-10-20T05:00:18;15.10;84.40
63445;DHT22;49573;47.682;9.170;2022-10-20T05:03:04;15.10;84.80
63445;DHT22;49573;47.682;9.170;2022-10-20T05:05:52;15.10;84.10
63445;DHT22;49573;47.682;9.170;2022-10-20T05:08:39;15.10;84.60
63445;DHT22;49573;47.682;9.170;2022-10-20T05:11:25;15.10;84.90
63445;DHT22;49573;47.682;9.170;2022-10-20T05:14:12;15.00;85.00
63445;DHT22;49573;47.682;9.170;2022-10-20T05:16:58;15.00;85.00
63445;DHT22;49573;47.682;9.170;2022-10-20T05:19:44;15.00;85.20
63445;DHT22;49573;47.682;9.170;2022-10-20T05:22:32;15.00;84.80
63445;DHT22;49573;47.682;9.170;2022-10-20T05:25:18;15.00;85.00
63445;DHT22;49573;47.682;9.170;2022-10-20T05:28:04;15.00;85.10
63445;DHT22;49573;47.682;9.170;2022-10-20T05:30:51;14.90;84.90
63445;DHT22;49573;47.682;9.170;2022-10-20T05:33:37;14.90;85.10
63445;DHT22;49573;47.682;9.170;2022-10-20T05:36:24;14.90;85.00
63445;DHT22;49573;47.682;9.170;2022-10-20T05:39:12;15.00;85.10
63445;DHT22;49573;47.682;9.170;2022-10-20T05:41:58;15.00;85.00
63445;DHT22;49573;47.682;9.170;2022-10-20T05:44:44;15.00;85.20
63445;DHT22;49573;47.682;9.170;2022-10-20T05:47:31;15.00;85.00
63445;DHT22;49573;47.682;9.170;2022-10-20T05:50:17;15.00;85.10
63445;DHT22;49573;47.682;9.170;2022-10-20T05:53:04;15.00;85.30
63445;DHT22;49573;47.682;9.170;2022-10-20T05:55:51;15.10;85.10
63445;DHT22;49573;47.682;9.170;2022-10-20T05:58:37;15.00;85.10
63445;DHT22;49573;47.682;9.170;2022-10-20T06:01:26;15.00;85.10
63445;DHT22;49573;47.682;9.170;2022-10-20T06:04:13;15.00;85.10
63445;DHT22;49573;47.682;9.170;2022-10-20T06:07:00;15.00;84.70
63445;DHT22;49573;47.682;9.170;2022-10-20T06:09:46;15.00;84.70
63445;DHT22;49573;47.682;9.170;2022-10-20T06:12:36;15.00;85.10
63445;DHT22;49573;47.682;9.170;2022-10-20T06:15:22;15.00;85.20
63445;DHT22;49573;47.682;9.170;2022-10-20T06:18:08;15.10;84.60
63445;DHT22;49573;47.682;9.170;2022-10-20T06:20:59;15.10;84.60
63445;DHT22;49573;47.682;9.170;2022-10-20T06:23:45;15.10;84.50
63445;DHT22;49573;47.682;9.170;2022-10-20T06:26:33;15.10;84.60
63445;DHT22;49573;47.682;9.170;2022-10-20T06:29:22;15.10;84.70
63445;DHT22;49573;47.682;9.170;2022-10-20T06:32:08;15.10;84.60
63445;DHT22;49573;47.682;9.170;2022-10-20T06:34:54;15.10;84.50
63445;DHT22;49573;47.682;9.170;2022-10-20T06:37:40;15.20;84.00
63445;DHT22;49573;47.682;9.170;2022-10-20T06:40:26;15.20;84.20
63445;DHT22;49573;47.682;9.170;2022-10-20T06:43:12;15.20;84.30
63445;DHT22;49573;47.682;9.170;2022-10-20T06:46:01;15.30;84.30
63445;DHT22;49573;47.682;9.170;2022-10-20T06:48:48;15.30;83.80
63445;DHT22;49573;47.682;9.170;2022-10-20T06:51:34;15.30;84.00
63445;DHT22;49573;47.682;9.170;2022-10-20T06:54:20;15.30;84.20
63445;DHT22;49573;47.682;9.170;2022-10-20T06:57:06;15.30;83.90
63445;DHT22;49573;47.682;9.170;2022-10-20T06:59:53;15.30;84.00
63445;DHT22;49573;47.682;9.170;2022-10-20T07:02:40;15.30;84.10
63445;DHT22;49573;47.682;9.170;2022-10-20T07:05:26;15.30;83.90
63445;DHT22;49573;47.682;9.170;2022-10-20T07:08:12;15.30;83.90
63445;DHT22;49573;47.682;9.170;2022-10-20T07:10:59;15.30;83.80
63445;DHT22;49573;47.682;9.170;2022-10-20T07:13:46;15.30;83.50
63445;DHT22;49573;47.682;9.170;2022-10-20T07:16:34;15.40;83.40
63445;DHT22;49573;47.682;9.170;2022-10-20T07:19:22;15.40;83.30
63445;DHT22;49573;47.682;9.170;2022-10-20T07:22:08;15.40;83.60
63445;DHT22;49573;47.682;9.170;2022-10-20T07:24:54;15.40;83.40
63445;DHT22;49573;47.682;9.170;2022-10-20T07:27:40;15.40;83.20
63445;DHT22;49573;47.682;9.170;2022-10-20T07:30:26;15.40;83.20
63445;DHT22;49573;47.682;9.170;2022-10-20T07:33:12;15.40;83.00
63445;DHT22;49573;47.682;9.170;2022-10-20T07:36:00;15.50;82.90
63445;DHT22;49573;47.682;9.170;2022-10-20T07:38:47;15.40;83.10
63445;DHT22;49573;47.682;9.170;2022-10-20T07:41:34;15.40;83.00
63445;DHT22;49573;47.682;9.170;2022-10-20T07:44:21;15.40;83.00
63445;DHT22;49573;47.682;9.170;2022-10-20T07:47:07;15.40;82.90
63445;DHT22;49573;47.682;9.170;2022-10-20T07:49:53;15.40;82.80
63445;DHT22;49573;47.682;9.170;2022-10-20T07:52:41;15.40;82.70
63445;DHT22;49573;47.682;9.170;2022-10-20T07:55:27;15.40;82.60
63445;DHT22;49573;47.682;9.170;2022-10-20T07:58:13;15.40;82.40
63445;DHT22;49573;47.682;9.170;2022-10-20T08:00:59;15.50;82.50
63445;DHT22;49573;47.682;9.170;2022-10-20T08:03:45;15.50;82.30
63445;DHT22;49573;47.682;9.170;2022-10-20T08:06:31;15.50;82.30
63445;DHT22;49573;47.682;9.170;2022-10-20T08:09:19;15.60;82.40
63445;DHT22;49573;47.682;9.170;2022-10-20T08:12:05;15.50;81.90
63445;DHT22;49573;47.682;9.170;2022-10-20T08:14:51;15.50;82.10
63445;DHT22;49573;47.682;9.170;2022-10-20T08:17:37;15.50;82.20
63445;DHT22;49573;47.682;9.170;2022-10-20T08:20:23;15.50;82.30
63445;DHT22;49573;47.682;9.170;2022-10-20T08:23:09;15.50;82.20
63445;DHT22;49573;47.682;9.170;2022-10-20T08:25:57;15.50;82.30
63445;DHT22;49573;47.682;9.170;2022-10-20T08:28:43;15.50;82.50
63445;DHT22;49573;47.682;9.170;2022-10-20T08:31:29;15.50;82.80
63445;DHT22;49573;47.682;9.170;2022-10-20T08:34:15;15.70;82.30
63445;DHT22;49573;47.682;9.170;2022-10-20T08:37:01;15.80;82.30
63445;DHT22;49573;47.682;9.170;2022-10-20T08:39:47;15.80;81.90
63445;DHT22;49573;47.682;9.170;2022-10-20T08:42:38;15.80;82.00
63445;DHT22;49573;47.682;9.170;2022-10-20T08:45:27;15.90;82.10
63445;DHT22;49573;47.682;9.170;2022-10-20T08:48:16;15.90;81.80
63445;DHT22;49573;47.682;9.170;2022-10-20T08:51:03;15.80;81.70
63445;DHT22;49573;47.682;9.170;2022-10-20T08:53:52;15.80;82.00
63445;DHT22;49573;47.682;9.170;2022-10-20T08:56:38;15.80;81.60
63445;DHT22;49573;47.682;9.170;2022-10-20T08:59:28;15.80;81.70
63445;DHT22;49573;47.682;9.170;2022-10-20T09:02:16;15.80;81.80
63445;DHT22;49573;47.682;9.170;2022-10-20T09:05:04;15.80;81.90
63445;DHT22;49573;47.682;9.170;2022-10-20T09:07:51;15.70;81.80
63445;DHT22;49573;47.682;9.170;2022-10-20T09:10:39;15.60;82.00
63445;DHT22;49573;47.682;9.170;2022-10-20T09:13:27;15.60;82.50
63445;DHT22;49573;47.682;9.170;2022-10-20T09:16:22;15.50;82.50
63445;DHT22;49573;47.682;9.170;2022-10-20T09:19:15;15.50;82.60
63445;DHT22;49573;47.682;9.170;2022-10-20T09:22:04;15.50;82.70
63445;DHT22;49573;47.682;9.170;2022-10-20T09:24:51;15.50;82.50
63445;DHT22;49573;47.682;9.170;2022-10-20T09:27:40;15.60;81.90
63445;DHT22;49573;47.682;9.170;2022-10-20T09:30:32;15.50;82.00
63445;DHT22;49573;47.682;9.170;2022-10-20T09:33:28;15.60;81.80
63445;DHT22;49573;47.682;9.170;2022-10-20T09:36:17;15.70;82.10
63445;DHT22;49573;47.682;9.170;2022-10-20T09:39:04;15.70;81.90
63445;DHT22;49573;47.682;9.170;2022-10-20T09:41:59;15.70;81.50
63445;DHT22;49573;47.682;9.170;2022-10-20T09:44:48;15.90;81.60
63445;DHT22;49573;47.682;9.170;2022-10-20T09:47:35;16.10;81.20
63445;DHT22;49573;47.682;9.170;2022-10-20T09:50:26;16.30;80.90
63445;DHT22;49573;47.682;9.170;2022-10-20T09:53:17;16.30;80.30
63445;DHT22;49573;47.682;9.170;2022-10-20T09:56:05;16.10;80.70
63445;DHT22;49573;47.682;9.170;2022-10-20T09:58:51;16.00;80.40
63445;DHT22;49573;47.682;9.170;2022-10-20T10:01:51;16.20;79.40
63445;DHT22;49573;47.682;9.170;2022-10-20T10:04:38;16.10;78.80
63445;DHT22;49573;47.682;9.170;2022-10-20T10:07:29;16.20;78.90
63445;DHT22;49573;47.682;9.170;2022-10-20T10:10:25;16.30;78.30
63445;DHT22;49573;47.682;9.170;2022-10-20T10:13:23;16.30;78.10
63445;DHT22;49573;47.682;9.170;2022-10-20T10:16:12;16.50;78.10
63445;DHT22;49573;47.682;9.170;2022-10-20T10:19:01;16.80;78.10
63445;DHT22;49573;47.682;9.170;2022-10-20T10:21:52;17.10;78.00
63445;DHT22;49573;47.682;9.170;2022-10-20T10:24:41;17.30;76.50
63445;DHT22;49573;47.682;9.170;2022-10-20T10:27:30;17.30;75.40
63445;DHT22;49573;47.682;9.170;2022-10-20T10:30:25;17.40;75.70
63445;DHT22;49573;47.682;9.170;2022-10-20T10:33:24;17.80;75.70
63445;DHT22;49573;47.682;9.170;2022-10-20T10:36:14;18.00;74.90
63445;DHT22;49573;47.682;9.170;2022-10-20T10:39:04;18.00;73.60
63445;DHT22;49573;47.682;9.170;2022-10-20T10:42:02;17.80;73.60
63445;DHT22;49573;47.682;9.170;2022-10-20T10:44:56;17.50;74.60
63445;DHT22;49573;47.682;9.170;2022-10-20T10:48:09;17.50;75.30
63445;DHT22;49573;47.682;9.170;2022-10-20T10:51:00;17.50;74.80
63445;DHT22;49573;47.682;9.170;2022-10-20T10:53:59;17.40;74.80
63445;DHT22;49573;47.682;9.170;2022-10-20T10:56:55;17.40;75.20
63445;DHT22;49573;47.682;9.170;2022-10-20T10:59:43;17.20;75.20
63445;DHT22;49573;47.682;9.170;2022-10-20T11:03:00;17.20;75.50
63445;DHT22;49573;47.682;9.170;2022-10-20T11:05:57;17.30;75.90
63445;DHT22;49573;47.682;9.170;2022-10-20T11:09:04;17.30;75.50
63445;DHT22;49573;47.682;9.170;2022-10-20T11:12:17;17.30;76.10
63445;DHT22;49573;47.682;9.170;2022-10-20T11:15:16;17.40;75.40
63445;DHT22;49573;47.682;9.170;2022-10-20T11:18:13;17.30;75.60
63445;DHT22;49573;47.682;9.170;2022-10-20T11:21:12;17.20;75.60
63445;DHT22;49573;47.682;9.170;2022-10-20T11:24:07;17.30;76.00
63445;DHT22;49573;47.682;9.170;2022-10-20T11:27:02;17.40;76.00
63445;DHT22;49573;47.682;9.170;2022-10-20T11:29:51;17.40;76.00
63445;DHT22;49573;47.682;9.170;2022-10-20T11:32:41;17.40;75.90
63445;DHT22;49573;47.682;9.170;2022-10-20T11:35:34;17.30;75.60
63445;DHT22;49573;47.682;9.170;2022-10-20T11:38:26;17.30;75.90
63445;DHT22;49573;47.682;9.170;2022-10-20T11:41:22;17.40;75.80
63445;DHT22;49573;47.682;9.170;2022-10-20T11:44:14;17.40;76.10
63445;DHT22;49573;47.682;9.170;2022-10-20T11:47:05;17.50;76.00
63445;DHT22;49573;47.682;9.170;2022-10-20T11:49:53;17.50;75.90
63445;DHT22;49573;47.682;9.170;2022-10-20T11:53:02;17.50;75.90
63445;DHT22;49573;47.682;9.170;2022-10-20T11:56:17;17.50;76.30
63445;DHT22;49573;47.682;9.170;2022-10-20T11:59:26;17.50;76.10
63445;DHT22;49573;47.682;9.170;2022-10-20T12:06:08;17.40;76.30
63445;DHT22;49573;47.682;9.170;2022-10-20T12:09:21;17.50;76.50
63445;DHT22;49573;47.682;9.170;2022-10-20T12:12:13;17.50;76.30
63445;DHT22;49573;47.682;9.170;2022-10-20T12:15:19;17.50;76.20
63445;DHT22;49573;47.682;9.170;2022-10-20T12:18:17;17.60;76.00
63445;DHT22;49573;47.682;9.170;2022-10-20T12:21:07;17.50;76.50
63445;DHT22;49573;47.682;9.170;2022-10-20T12:23:58;17.50;76.50
63445;DHT22;49573;47.682;9.170;2022-10-20T12:30:41;17.60;76.40
63445;DHT22;49573;47.682;9.170;2022-10-20T12:33:37;17.50;76.10
63445;DHT22;49573;47.682;9.170;2022-10-20T12:36:39;17.50;76.40
63445;DHT22;49573;47.682;9.170;2022-10-20T12:39:28;17.60;76.50
63445;DHT22;49573;47.682;9.170;2022-10-20T12:42:20;17.50;76.30
63445;DHT22;49573;47.682;9.170;2022-10-20T12:45:28;17.50;76.90
63445;DHT22;49573;47.682;9.170;2022-10-20T12:48:19;17.50;76.50
63445;DHT22;49573;47.682;9.170;2022-10-20T12:51:16;17.50;76.40
63445;DHT22;49573;47.682;9.170;2022-10-20T12:54:07;17.50;76.50
63445;DHT22;49573;47.682;9.170;2022-10-20T12:57:03;17.50;76.50
63445;DHT22;49573;47.682;9.170;2022-10-20T12:59:50;17.50;76.30
63445;DHT22;49573;47.682;9.170;2022-10-20T13:02:48;17.60;76.70
63445;DHT22;49573;47.682;9.170;2022-10-20T13:05:45;17.60;76.70
63445;DHT22;49573;47.682;9.170;2022-10-20T13:08:32;17.60;76.40
63445;DHT22;49573;47.682;9.170;2022-10-20T13:11:53;17.60;75.80
63445;DHT22;49573;47.682;9.170;2022-10-20T13:14:53;17.60;76.10
63445;DHT22;49573;47.682;9.170;2022-10-20T13:17:50;17.60;76.30
63445;DHT22;49573;47.682;9.170;2022-10-20T13:20:43;17.50;76.30
63445;DHT22;49573;47.682;9.170;2022-10-20T13:23:35;17.60;76.30
63445;DHT22;49573;47.682;9.170;2022-10-20T13:26:24;17.60;76.70
63445;DHT22;49573;47.682;9.170;2022-10-20T13:29:12;17.60;76.20
63445;DHT22;49573;47.682;9.170;2022-10-20T13:32:08;17.60;76.40
63445;DHT22;49573;47.682;9.170;2022-10-20T13:35:02;17.70;76.30
63445;DHT22;49573;47.682;9.170;2022-10-20T13:37:56;17.70;76.30
63445;DHT22;49573;47.682;9.170;2022-10-20T13:40:50;17.70;76.50
63445;DHT22;49573;47.682;9.170;2022-10-20T13:43:45;17.70;75.90
63445;DHT22;49573;47.682;9.170;2022-10-20T13:46:43;17.60;76.20
63445;DHT22;49573;47.682;9.170;2022-10-20T13:49:51;17.60;76.20
63445;DHT22;49573;47.682;9.170;2022-10-20T13:52:44;17.50;76.20
63445;DHT22;49573;47.682;9.170;2022-10-20T13:55:55;17.50;76.60
63445;DHT22;49573;47.682;9.170;2022-10-20T13:58:57;17.40;77.10
63445;DHT22;49573;47.682;9.170;2022-10-20T14:01:46;17.40;76.60
63445;DHT22;49573;47.682;9.170;2022-10-20T14:04:35;17.30;76.70
63445;DHT22;49573;47.682;9.170;2022-10-20T14:07:35;17.30;76.50
63445;DHT22;49573;47.682;9.170;2022-10-20T14:10:26;17.20;76.80
63445;DHT22;49573;47.682;9.170;2022-10-20T14:13:23;17.20;77.00
63445;DHT22;49573;47.682;9.170;2022-10-20T14:16:17;17.00;77.40
63445;DHT22;49573;47.682;9.170;2022-10-20T14:19:06;16.80;78.10
63445;DHT22;49573;47.682;9.170;2022-10-20T14:21:55;16.90;78.20
63445;DHT22;49573;47.682;9.170;2022-10-20T14:24:43;16.80;78.10
63445;DHT22;49573;47.682;9.170;2022-10-20T14:27:31;16.80;78.40
63445;DHT22;49573;47.682;9.170;2022-10-20T14:30:20;16.80;78.40
63445;DHT22;49573;47.682;9.170;2022-10-20T14:33:12;16.70;78.30
63445;DHT22;49573;47.682;9.170;2022-10-20T14:35:59;16.80;78.70
63445;DHT22;49573;47.682;9.170;2022-10-20T14:38:49;16.70;78.90
63445;DHT22;49573;47.682;9.170;2022-10-20T14:41:35;16.70;78.40
63445;DHT22;49573;47.682;9.170;2022-10-20T14:44:23;16.60;79.00
63445;DHT22;49573;47.682;9.170;2022-10-20T14:47:13;16.40;79.20
63445;DHT22;49573;47.682;9.170;2022-10-20T14:49:59;16.40;79.60
63445;DHT22;49573;47.682;9.170;2022-10-20T14:52:45;16.30;79.80
63445;DHT22;49573;47.682;9.170;2022-10-20T14:55:33;16.30;79.80
63445;DHT22;49573;47.682;9.170;2022-10-20T14:58:32;16.40;79.50
63445;DHT22;49573;47.682;9.170;2022-10-20T15:01:25;16.50;80.10
63445;DHT22;49573;47.682;9.170;2022-10-20T15:04:16;16.50;80.50
63445;DHT22;49573;47.682;9.170;2022-10-20T15:07:12;16.60;80.70
63445;DHT22;49573;47.682;9.170;2022-10-20T15:10:05;16.50;80.80
63445;DHT22;49573;47.682;9.170;2022-10-20T15:12:53;16.50;80.50
63445;DHT22;49573;47.682;9.170;2022-10-20T15:15:40;16.50;80.50
63445;DHT22;49573;47.682;9.170;2022-10-20T15:18:29;16.30;80.30
63445;DHT22;49573;47.682;9.170;2022-10-20T15:21:15;16.50;80.30
63445;DHT22;49573;47.682;9.170;2022-10-20T15:24:01;16.50;80.80
63445;DHT22;49573;47.682;9.170;2022-10-20T15:26:47;16.50;80.80
63445;DHT22;49573;47.682;9.170;2022-10-20T15:29:33;16.50;80.70
63445;DHT22;49573;47.682;9.170;2022-10-20T15:32:19;16.40;80.80
63445;DHT22;49573;47.682;9.170;2022-10-20T15:35:11;16.40;81.30
63445;DHT22;49573;47.682;9.170;2022-10-20T15:37:57;16.40;80.90
63445;DHT22;49573;47.682;9.170;2022-10-20T15:40:43;16.40;81.40
63445;DHT22;49573;47.682;9.170;2022-10-20T15:43:29;16.30;81.00
63445;DHT22;49573;47.682;9.170;2022-10-20T15:46:16;16.30;81.10
63445;DHT22;49573;47.682;9.170;2022-10-20T15:49:03;16.30;81.50
63445;DHT22;49573;47.682;9.170;2022-10-20T15:51:50;16.30;81.40
63445;DHT22;49573;47.682;9.170;2022-10-20T15:54:36;16.30;81.70
63445;DHT22;49573;47.682;9.170;2022-10-20T15:57:22;16.30;81.80
63445;DHT22;49573;47.682;9.170;2022-10-20T16:00:09;16.30;81.70
63445;DHT22;49573;47.682;9.170;2022-10-20T16:02:56;16.20;82.20
63445;DHT22;49573;47.682;9.170;2022-10-20T16:05:42;16.20;82.10
63445;DHT22;49573;47.682;9.170;2022-10-20T16:08:29;16.20;82.30
63445;DHT22;49573;47.682;9.170;2022-10-20T16:11:17;16.20;82.20
63445;DHT22;49573;47.682;9.170;2022-10-20T16:14:03;16.20;82.30
63445;DHT22;49573;47.682;9.170;2022-10-20T16:16:51;16.10;82.40
63445;DHT22;49573;47.682;9.170;2022-10-20T16:19:37;16.10;82.50
63445;DHT22;49573;47.682;9.170;2022-10-20T16:22:23;16.00;82.60
63445;DHT22;49573;47.682;9.170;2022-10-20T16:25:10;16.00;82.80
63445;DHT22;49573;47.682;9.170;2022-10-20T16:27:56;16.00;82.60
63445;DHT22;49573;47.682;9.170;2022-10-20T16:30:42;15.90;82.60
63445;DHT22;49573;47.682;9.170;2022-10-20T16:33:28;15.80;82.80
63445;DHT22;49573;47.682;9.170;2022-10-20T16:36:16;15.80;82.70
63445;DHT22;49573;47.682;9.170;2022-10-20T16:39:02;15.80;82.80
63445;DHT22;49573;47.682;9.170;2022-10-20T16:41:50;15.80;82.80
63445;DHT22;49573;47.682;9.170;2022-10-20T16:44:36;15.70;83.20
63445;DHT22;49573;47.682;9.170;2022-10-20T16:47:23;15.70;82.80
63445;DHT22;49573;47.682;9.170;2022-10-20T16:50:09;15.60;83.10
63445;DHT22;49573;47.682;9.170;2022-10-20T16:52:55;15.60;82.70
63445;DHT22;49573;47.682;9.170;2022-10-20T16:55:50;15.60;83.10
63445;DHT22;49573;47.682;9.170;2022-10-20T16:58:38;15.50;83.30
63445;DHT22;49573;47.682;9.170;2022-10-20T17:01:24;15.40;83.60
63445;DHT22;49573;47.682;9.170;2022-10-20T17:04:11;15.30;83.70
63445;DHT22;49573;47.682;9.170;2022-10-20T17:06:57;15.30;83.80
63445;DHT22;49573;47.682;9.170;2022-10-20T17:09:43;15.30;83.70
63445;DHT22;49573;47.682;9.170;2022-10-20T17:12:29;15.30;83.70
63445;DHT22;49573;47.682;9.170;2022-10-20T17:15:17;15.30;83.20
63445;DHT22;49573;47.682;9.170;2022-10-20T17:18:03;15.30;84.00
63445;DHT22;49573;47.682;9.170;2022-10-20T17:20:52;15.20;84.10
63445;DHT22;49573;47.682;9.170;2022-10-20T17:23:41;15.10;84.20
63445;DHT22;49573;47.682;9.170;2022-10-20T17:26:29;15.10;84.40
63445;DHT22;49573;47.682;9.170;2022-10-20T17:29:15;15.10;84.50
63445;DHT22;49573;47.682;9.170;2022-10-20T17:32:03;15.00;84.90
63445;DHT22;49573;47.682;9.170;2022-10-20T17:34:49;15.00;84.60
63445;DHT22;49573;47.682;9.170;2022-10-20T17:37:35;15.00;84.90
63445;DHT22;49573;47.682;9.170;2022-10-20T17:40:21;15.00;85.00
63445;DHT22;49573;47.682;9.170;2022-10-20T17:43:09;15.00;84.70
63445;DHT22;49573;47.682;9.170;2022-10-20T17:45:56;14.90;85.40
63445;DHT22;49573;47.682;9.170;2022-10-20T17:48:43;14.90;85.20
63445;DHT22;49573;47.682;9.170;2022-10-20T17:51:30;15.00;85.40
63445;DHT22;49573;47.682;9.170;2022-10-20T17:54:16;15.00;85.50
63445;DHT22;49573;47.682;9.170;2022-10-20T17:57:02;15.00;85.40
63445;DHT22;49573;47.682;9.170;2022-10-20T17:59:48;14.90;85.60
63445;DHT22;49573;47.682;9.170;2022-10-20T18:02:34;15.00;85.00
63445;DHT22;49573;47.682;9.170;2022-10-20T18:05:22;15.10;85.00
63445;DHT22;49573;47.682;9.170;2022-10-20T18:08:08;15.00;85.50
63445;DHT22;49573;47.682;9.170;2022-10-20T18:10:54;15.10;85.50
63445;DHT22;49573;47.682;9.170;2022-10-20T18:13:40;15.10;85.40
63445;DHT22;49573;47.682;9.170;2022-10-20T18:16:28;15.10;85.30
63445;DHT22;49573;47.682;9.170;2022-10-20T18:19:15;15.00;85.30